sensor_id;sensor_type;location;lat;lon;timestamp;pressure;altitude;pressure_sealevel;temperature;humidity
73240;BME280;61452;40.054;4.110;2023-09-30T00:00:15;102481.00;;;24.54;100.00
73240;BME280;61452;40.054;4.110;2023-09-30T00:05:17;102488.06;;;24.55;100.00
73240;BME280;61452;40.054;4.110;2023-09-30T00:10:21;102478.19;;;24.55;100.00
73240;BME280;61452;40.054;4.110;2023-09-30T00:15:24;102482.56;;;24.56;100.00
73240;BME280;61452;40.054;4.110;2023-09-30T00:20:29;102478.19;;;24.55;100.00
73240;BME280;61452;40.054;4.110;2023-09-30T00:25:32;102469.13;;;24.56;100.00
73240;BME280;61452;40.054;4.110;2023-09-30T00:30:35;102483.41;;;24.57;100.00
73240;BME280;61452;40.054;4.110;2023-09-30T00:35:37;102480.50;;;24.60;100.00
73240;BME280;61452;40.054;4.110;2023-09-30T00:40:39;102468.44;;;24.54;100.00
73240;BME280;61452;40.054;4.110;2023-09-30T00:46:18;102470.00;;;24.57;100.00
73240;BME280;61452;40.054;4.110;2023-09-30T00:51:26;102467.31;;;24.57;100.00
73240;BME280;61452;40.054;4.110;2023-09-30T00:56:30;102462.22;;;24.54;100.00
73240;BME280;61452;40.054;4.110;2023-09-30T01:01:32;102462.94;;;24.56;100.00
73240;BME280;61452;40.054;4.110;2023-09-30T01:06:35;102465.63;;;24.56;100.00
73240;BME280;61452;40.054;4.110;2023-09-30T01:11:39;102452.44;;;24.53;100.00
73240;BME280;61452;40.054;4.110;2023-09-30T01:16:42;102456.84;;;24.54;100.00
73240;BME280;61452;40.054;4.110;2023-09-30T01:21:44;102461.09;;;24.56;100.00
73240;BME280;61452;40.054;4.110;2023-09-30T01:26:50;102459.53;;;24.54;100.00
73240;BME280;61452;40.054;4.110;2023-09-30T01:31:53;102471.81;;;24.56;100.00
73240;BME280;61452;40.054;4.110;2023-09-30T01:36:56;102460.25;;;24.56;100.00
73240;BME280;61452;40.054;4.110;2023-09-30T01:41:58;102468.31;;;24.56;100.00
73240;BME280;61452;40.054;4.110;2023-09-30T01:47:01;102457.69;;;24.54;100.00
73240;BME280;61452;40.054;4.110;2023-09-30T01:52:03;102464.91;;;24.54;100.00
73240;BME280;61452;40.054;4.110;2023-09-30T01:57:06;102459.25;;;24.57;100.00
73240;BME280;61452;40.054;4.110;2023-09-30T02:02:08;102461.09;;;24.56;100.00
73240;BME280;61452;40.054;4.110;2023-09-30T02:07:10;102457.69;;;24.54;100.00
73240;BME280;61452;40.054;4.110;2023-09-30T02:12:13;102450.34;;;24.56;100.00
73240;BME280;61452;40.054;4.110;2023-09-30T02:17:15;102439.78;;;24.55;100.00
73240;BME280;61452;40.054;4.110;2023-09-30T02:22:17;102442.31;;;24.56;100.00
73240;BME280;61452;40.054;4.110;2023-09-30T02:27:20;102437.09;;;24.55;100.00
73240;BME280;61452;40.054;4.110;2023-09-30T02:32:22;102435.63;;;24.51;100.00
73240;BME280;61452;40.054;4.110;2023-09-30T02:37:26;102436.34;;;24.53;100.00
73240;BME280;61452;40.054;4.110;2023-09-30T02:42:29;102434.41;;;24.55;100.00
73240;BME280;61452;40.054;4.110;2023-09-30T02:47:32;102434.53;;;24.53;100.00
73240;BME280;61452;40.054;4.110;2023-09-30T02:52:34;102427.44;;;24.52;100.00
73240;BME280;61452;40.054;4.110;2023-09-30T02:57:38;102423.78;;;24.53;100.00
73240;BME280;61452;40.054;4.110;2023-09-30T03:02:40;102417.56;;;24.53;100.00
73240;BME280;61452;40.054;4.110;2023-09-30T03:07:44;102413.91;;;24.54;100.00
73240;BME280;61452;40.054;4.110;2023-09-30T03:12:47;102403.19;;;24.54;100.00
73240;BME280;61452;40.054;4.110;2023-09-30T03:17:50;102409.53;;;24.53;100.00
73240;BME280;61452;40.054;4.110;2023-09-30T03:22:54;102413.19;;;24.52;100.00
73240;BME280;61452;40.054;4.110;2023-09-30T03:27:56;102404.16;;;24.53;100.00
73240;BME280;61452;40.054;4.110;2023-09-30T03:32:58;102403.41;;;24.51;100.00
73240;BME280;61452;40.054;4.110;2023-09-30T03:38:01;102405.13;;;24.52;100.00
73240;BME280;61452;40.054;4.110;2023-09-30T03:43:04;102387.09;;;24.54;100.00
73240;BME280;61452;40.054;4.110;2023-09-30T03:48:10;102396.84;;;24.55;100.00
73240;BME280;61452;40.054;4.110;2023-09-30T03:53:13;102391.72;;;24.52;100.00
73240;BME280;61452;40.054;4.110;2023-09-30T03:58:17;102398.66;;;24.54;100.00
73240;BME280;61452;40.054;4.110;2023-09-30T04:03:20;102394.28;;;24.53;100.00
73240;BME280;61452;40.054;4.110;2023-09-30T04:08:22;102395.13;;;24.54;100.00
73240;BME280;61452;40.054;4.110;2023-09-30T04:13:25;102389.50;;;24.57;100.00
73240;BME280;61452;40.054;4.110;2023-09-30T04:18:27;102385.25;;;24.54;100.00
73240;BME280;61452;40.054;4.110;2023-09-30T04:23:30;102401.25;;;24.56;100.00
73240;BME280;61452;40.054;4.110;2023-09-30T04:28:32;102401.34;;;24.54;100.00
73240;BME280;61452;40.054;4.110;2023-09-30T04:33:36;102395.25;;;24.52;100.00
73240;BME280;61452;40.054;4.110;2023-09-30T04:38:38;102405.13;;;24.52;100.00
73240;BME280;61452;40.054;4.110;2023-09-30T04:43:41;102399.66;;;24.53;100.00
73240;BME280;61452;40.054;4.110;2023-09-30T04:48:45;102393.53;;;24.51;100.00
73240;BME280;61452;40.054;4.110;2023-09-30T04:53:50;102396.22;;;24.51;100.00
73240;BME280;61452;40.054;4.110;2023-09-30T04:58:53;102396.22;;;24.51;100.00
73240;BME280;61452;40.054;4.110;2023-09-30T05:03:55;102409.78;;;24.50;100.00
73240;BME280;61452;40.054;4.110;2023-09-30T05:08:58;102412.59;;;24.48;100.00
73240;BME280;61452;40.054;4.110;2023-09-30T05:14:01;102414.41;;;24.48;100.00
73240;BME280;61452;40.054;4.110;2023-09-30T05:19:03;102415.38;;;24.47;100.00
73240;BME280;61452;40.054;4.110;2023-09-30T05:24:07;102408.31;;;24.46;100.00
73240;BME280;61452;40.054;4.110;2023-09-30T05:29:09;102413.44;;;24.49;100.00
73240;BME280;61452;40.054;4.110;2023-09-30T05:34:11;102409.78;;;24.50;100.00
73240;BME280;61452;40.054;4.110;2023-09-30T05:39:13;102419.66;;;24.49;100.00
73240;BME280;61452;40.054;4.110;2023-09-30T05:44:21;102423.19;;;24.50;100.00
73240;BME280;61452;40.054;4.110;2023-09-30T05:49:24;102435.03;;;24.47;100.00
73240;BME280;61452;40.054;4.110;2023-09-30T05:54:26;102438.19;;;24.52;100.00
73240;BME280;61452;40.054;4.110;2023-09-30T05:59:28;102433.94;;;24.50;100.00
73240;BME280;61452;40.054;4.110;2023-09-30T06:04:30;102438.19;;;24.52;100.00
73240;BME280;61452;40.054;4.110;2023-09-30T06:09:32;102442.69;;;24.52;100.00
73240;BME280;61452;40.054;4.110;2023-09-30T06:14:35;102447.19;;;24.51;100.00
73240;BME280;61452;40.054;4.110;2023-09-30T06:19:37;102458.91;;;24.50;100.00
73240;BME280;61452;40.054;4.110;2023-09-30T06:24:39;102459.06;;;24.49;100.00
73240;BME280;61452;40.054;4.110;2023-09-30T06:29:42;102464.41;;;24.49;100.00
73240;BME280;61452;40.054;4.110;2023-09-30T06:34:44;102458.09;;;24.50;100.00
73240;BME280;61452;40.054;4.110;2023-09-30T06:39:47;102461.47;;;24.52;100.00
73240;BME280;61452;40.054;4.110;2023-09-30T06:44:50;102478.31;;;24.54;100.00
73240;BME280;61452;40.054;4.110;2023-09-30T06:49:54;102488.94;;;24.55;100.00
73240;BME280;61452;40.054;4.110;2023-09-30T06:54:56;102495.16;;;24.56;100.00
73240;BME280;61452;40.054;4.110;2023-09-30T06:59:59;102494.88;;;24.59;100.00
73240;BME280;61452;40.054;4.110;2023-09-30T07:05:05;102517.44;;;24.56;100.00
73240;BME280;61452;40.054;4.110;2023-09-30T07:10:08;102520.00;;;24.58;100.00
73240;BME280;61452;40.054;4.110;2023-09-30T07:15:11;102522.81;;;24.56;100.00
73240;BME280;61452;40.054;4.110;2023-09-30T07:20:14;102532.56;;;24.57;100.00
73240;BME280;61452;40.054;4.110;2023-09-30T07:25:16;102535.41;;;24.56;100.00
73240;BME280;61452;40.054;4.110;2023-09-30T07:30:19;102550.66;;;24.55;100.00
73240;BME280;61452;40.054;4.110;2023-09-30T07:35:23;102549.63;;;24.56;100.00
73240;BME280;61452;40.054;4.110;2023-09-30T07:40:25;102547.09;;;24.55;100.00
73240;BME280;61452;40.054;4.110;2023-09-30T07:45:27;102555.75;;;24.58;100.00
73240;BME280;61452;40.054;4.110;2023-09-30T07:50:31;102568.56;;;24.55;100.00
73240;BME280;61452;40.054;4.110;2023-09-30T07:55:33;102576.63;;;24.55;100.00
73240;BME280;61452;40.054;4.110;2023-09-30T08:00:35;102566.00;;;24.53;100.00
73240;BME280;61452;40.054;4.110;2023-09-30T08:05:38;102578.56;;;24.53;100.00
73240;BME280;61452;40.054;4.110;2023-09-30T08:10:42;102568.69;;;24.53;100.00
73240;BME280;61452;40.054;4.110;2023-09-30T08:15:44;102560.75;;;24.52;100.00
73240;BME280;61452;40.054;4.110;2023-09-30T08:20:47;102570.41;;;24.54;100.00
73240;BME280;61452;40.054;4.110;2023-09-30T08:25:49;102576.72;;;24.53;100.00
73240;BME280;61452;40.054;4.110;2023-09-30T08:30:51;102580.28;;;24.54;100.00
73240;BME280;61452;40.054;4.110;2023-09-30T08:36:03;102589.19;;;24.54;100.00
73240;BME280;61452;40.054;4.110;2023-09-30T08:41:09;102590.16;;;24.53;100.00
73240;BME280;61452;40.054;4.110;2023-09-30T08:46:11;102591.88;;;24.54;100.00
73240;BME280;61452;40.054;4.110;2023-09-30T08:51:14;102591.88;;;24.54;100.00
73240;BME280;61452;40.054;4.110;2023-09-30T08:56:16;102599.91;;;24.54;100.00
73240;BME280;61452;40.054;4.110;2023-09-30T09:01:20;102594.44;;;24.56;100.00
73240;BME280;61452;40.054;4.110;2023-09-30T09:06:24;102600.78;;;24.55;100.00
73240;BME280;61452;40.054;4.110;2023-09-30T09:11:27;102603.31;;;24.56;100.00
73240;BME280;61452;40.054;4.110;2023-09-30T09:16:29;102613.06;;;24.57;100.00
73240;BME280;61452;40.054;4.110;2023-09-30T09:21:32;102607.69;;;24.57;100.00
73240;BME280;61452;40.054;4.110;2023-09-30T09:26:34;102619.28;;;24.58;100.00
73240;BME280;61452;40.054;4.110;2023-09-30T09:31:38;102622.09;;;24.56;100.00
73240;BME280;61452;40.054;4.110;2023-09-30T09:36:43;102623.81;;;24.57;100.00
73240;BME280;61452;40.054;4.110;2023-09-30T09:41:53;102621.13;;;24.57;100.00
73240;BME280;61452;40.054;4.110;2023-09-30T09:46:57;102613.94;;;24.58;100.00
73240;BME280;61452;40.054;4.110;2023-09-30T09:52:00;102619.19;;;24.59;100.00
73240;BME280;61452;40.054;4.110;2023-09-30T09:57:05;102620.03;;;24.60;100.00
73240;BME280;61452;40.054;4.110;2023-09-30T10:02:11;102608.56;;;24.58;100.00
73240;BME280;61452;40.054;4.110;2023-09-30T10:07:21;102620.03;;;24.60;100.00
73240;BME280;61452;40.054;4.110;2023-09-30T10:12:25;102620.03;;;24.60;100.00
73240;BME280;61452;40.054;4.110;2023-09-30T10:18:05;102622.72;;;24.60;100.00
73240;BME280;61452;40.054;4.110;2023-09-30T10:23:17;102614.91;;;24.57;100.00
73240;BME280;61452;40.054;4.110;2023-09-30T10:28:33;102617.47;;;24.58;100.00
73240;BME280;61452;40.054;4.110;2023-09-30T10:33:35;102611.25;;;24.58;100.00
73240;BME280;61452;40.054;4.110;2023-09-30T10:38:38;102615.41;;;24.62;100.00
73240;BME280;61452;40.054;4.110;2023-09-30T10:43:42;102615.53;;;24.61;100.00
73240;BME280;61452;40.054;4.110;2023-09-30T10:48:44;102616.50;;;24.59;100.00
73240;BME280;61452;40.054;4.110;2023-09-30T10:53:54;102618.22;;;24.61;100.00
73240;BME280;61452;40.054;4.110;2023-09-30T10:59:02;102612.00;;;24.60;100.00
73240;BME280;61452;40.054;4.110;2023-09-30T11:04:06;102607.47;;;24.61;100.00
73240;BME280;61452;40.054;4.110;2023-09-30T11:09:21;102598.47;;;24.62;100.00
73240;BME280;61452;40.054;4.110;2023-09-30T11:19:35;102595.88;;;24.60;100.00
73240;BME280;61452;40.054;4.110;2023-09-30T11:24:39;102594.91;;;24.61;100.00
73240;BME280;61452;40.054;4.110;2023-09-30T11:29:50;102591.38;;;24.61;100.00
73240;BME280;61452;40.054;4.110;2023-09-30T11:34:52;102582.34;;;24.62;100.00
73240;BME280;61452;40.054;4.110;2023-09-30T11:39:55;102571.63;;;24.62;100.00
73240;BME280;61452;40.054;4.110;2023-09-30T11:44:57;102574.31;;;24.62;100.00
73240;BME280;61452;40.054;4.110;2023-09-30T11:49:59;102570.66;;;24.63;100.00
73240;BME280;61452;40.054;4.110;2023-09-30T11:55:05;102579.53;;;24.63;100.00
73240;BME280;61452;40.054;4.110;2023-09-30T12:00:08;102575.16;;;24.62;100.00
73240;BME280;61452;40.054;4.110;2023-09-30T12:05:15;102568.78;;;24.63;100.00
73240;BME280;61452;40.054;4.110;2023-09-30T12:10:18;102573.19;;;24.64;100.00
73240;BME280;61452;40.054;4.110;2023-09-30T12:15:20;102563.44;;;24.63;100.00
73240;BME280;61452;40.054;4.110;2023-09-30T12:20:24;102561.59;;;24.64;100.00
73240;BME280;61452;40.054;4.110;2023-09-30T12:25:27;102568.69;;;24.65;100.00
73240;BME280;61452;40.054;4.110;2023-09-30T12:30:29;102560.63;;;24.65;100.00
73240;BME280;61452;40.054;4.110;2023-09-30T12:35:34;102563.31;;;24.65;100.00
73240;BME280;61452;40.054;4.110;2023-09-30T12:40:36;102549.88;;;24.65;100.00
73240;BME280;61452;40.054;4.110;2023-09-30T12:45:38;102552.56;;;24.65;100.00
73240;BME280;61452;40.054;4.110;2023-09-30T12:50:46;102547.94;;;24.67;100.00
73240;BME280;61452;40.054;4.110;2023-09-30T12:55:49;102533.78;;;24.65;100.00
73240;BME280;61452;40.054;4.110;2023-09-30T13:00:51;102541.84;;;24.65;100.00
73240;BME280;61452;40.054;4.110;2023-09-30T13:05:54;102532.81;;;24.66;100.00
73240;BME280;61452;40.054;4.110;2023-09-30T13:10:56;102536.25;;;24.68;100.00
73240;BME280;61452;40.054;4.110;2023-09-30T13:16:02;102544.03;;;24.71;100.00
73240;BME280;61452;40.054;4.110;2023-09-30T13:21:09;102535.28;;;24.69;100.00
73240;BME280;61452;40.054;4.110;2023-09-30T13:26:14;102537.09;;;24.68;100.00
73240;BME280;61452;40.054;4.110;2023-09-30T13:31:16;102542.47;;;24.68;100.00
73240;BME280;61452;40.054;4.110;2023-09-30T13:36:18;102531.00;;;24.66;100.00
73240;BME280;61452;40.054;4.110;2023-09-30T13:41:21;102525.34;;;24.69;100.00
73240;BME280;61452;40.054;4.110;2023-09-30T13:46:23;102514.78;;;24.68;100.00
73240;BME280;61452;40.054;4.110;2023-09-30T13:51:28;102512.94;;;24.68;100.00
73240;BME280;61452;40.054;4.110;2023-09-30T13:56:30;102522.81;;;24.68;100.00
73240;BME280;61452;40.054;4.110;2023-09-30T14:01:32;102504.75;;;24.70;100.00
73240;BME280;61452;40.054;4.110;2023-09-30T14:06:35;102508.28;;;24.70;100.00
73240;BME280;61452;40.054;4.110;2023-09-30T14:11:38;102501.22;;;24.69;100.00
73240;BME280;61452;40.054;4.110;2023-09-30T14:16:41;102502.06;;;24.70;100.00
73240;BME280;61452;40.054;4.110;2023-09-30T14:21:43;102490.47;;;24.69;100.00
73240;BME280;61452;40.054;4.110;2023-09-30T14:26:47;102490.34;;;24.71;100.00
73240;BME280;61452;40.054;4.110;2023-09-30T14:31:50;102487.66;;;24.71;100.00
73240;BME280;61452;40.054;4.110;2023-09-30T14:36:53;102479.63;;;24.71;100.00
73240;BME280;61452;40.054;4.110;2023-09-30T14:41:55;102473.28;;;24.72;100.00
73240;BME280;61452;40.054;4.110;2023-09-30T14:46:58;102474.13;;;24.72;100.00
73240;BME280;61452;40.054;4.110;2023-09-30T14:52:00;102475.00;;;24.73;100.00
73240;BME280;61452;40.054;4.110;2023-09-30T14:57:02;102475.09;;;24.71;100.00
73240;BME280;61452;40.054;4.110;2023-09-30T15:02:06;102479.38;;;24.74;100.00
73240;BME280;61452;40.054;4.110;2023-09-30T15:07:10;102479.38;;;24.74;100.00
73240;BME280;61452;40.054;4.110;2023-09-30T15:12:14;102482.78;;;24.76;100.00
73240;BME280;61452;40.054;4.110;2023-09-30T15:17:16;102479.13;;;24.77;100.00
73240;BME280;61452;40.054;4.110;2023-09-30T15:22:18;102474.72;;;24.76;100.00
73240;BME280;61452;40.054;4.110;2023-09-30T15:27:20;102477.56;;;24.74;100.00
73240;BME280;61452;40.054;4.110;2023-09-30T15:32:23;102477.41;;;24.76;100.00
73240;BME280;61452;40.054;4.110;2023-09-30T15:37:26;102489.00;;;24.76;100.00
73240;BME280;61452;40.054;4.110;2023-09-30T15:42:28;102481.69;;;24.78;100.00
73240;BME280;61452;40.054;4.110;2023-09-30T15:47:31;102470.94;;;24.78;100.00
73240;BME280;61452;40.054;4.110;2023-09-30T15:52:33;102476.19;;;24.80;100.00
73240;BME280;61452;40.054;4.110;2023-09-30T15:57:35;102462.78;;;24.80;100.00
73240;BME280;61452;40.054;4.110;2023-09-30T16:02:37;102467.16;;;24.81;100.00
73240;BME280;61452;40.054;4.110;2023-09-30T16:07:40;102458.38;;;24.79;100.00
73240;BME280;61452;40.054;4.110;2023-09-30T16:12:42;102462.91;;;24.78;100.00
73240;BME280;61452;40.054;4.110;2023-09-30T16:17:44;102468.00;;;24.81;100.00
73240;BME280;61452;40.054;4.110;2023-09-30T16:22:46;102460.81;;;24.82;100.00
73240;BME280;61452;40.054;4.110;2023-09-30T16:27:49;102456.28;;;24.82;100.00
73240;BME280;61452;40.054;4.110;2023-09-30T16:32:52;102461.66;;;24.82;100.00
73240;BME280;61452;40.054;4.110;2023-09-30T16:37:54;102458.13;;;24.82;100.00
73240;BME280;61452;40.054;4.110;2023-09-30T16:42:56;102457.16;;;24.83;100.00
73240;BME280;61452;40.054;4.110;2023-09-30T16:48:00;102458.13;;;24.82;100.00
73240;BME280;61452;40.054;4.110;2023-09-30T16:53:02;102455.44;;;24.82;100.00
73240;BME280;61452;40.054;4.110;2023-09-30T16:58:04;102453.59;;;24.82;100.00
73240;BME280;61452;40.054;4.110;2023-09-30T17:03:07;102463.38;;;24.83;100.00
73240;BME280;61452;40.054;4.110;2023-09-30T17:08:10;102467.75;;;24.84;100.00
73240;BME280;61452;40.054;4.110;2023-09-30T17:13:13;102461.41;;;24.85;100.00
73240;BME280;61452;40.054;4.110;2023-09-30T17:18:16;102465.06;;;24.84;100.00
73240;BME280;61452;40.054;4.110;2023-09-30T17:23:18;102472.16;;;24.85;100.00
73240;BME280;61452;40.054;4.110;2023-09-30T17:28:20;102471.31;;;24.85;100.00
73240;BME280;61452;40.054;4.110;2023-09-30T17:33:24;102472.41;;;24.82;100.00
73240;BME280;61452;40.054;4.110;2023-09-30T17:38:27;102473.25;;;24.83;100.00
73240;BME280;61452;40.054;4.110;2023-09-30T17:43:33;102478.63;;;24.83;100.00
73240;BME280;61452;40.054;4.110;2023-09-30T17:48:36;102475.06;;;24.82;100.00
73240;BME280;61452;40.054;4.110;2023-09-30T17:53:39;102472.41;;;24.82;100.00
73240;BME280;61452;40.054;4.110;2023-09-30T17:58:41;102473.25;;;24.83;100.00
73240;BME280;61452;40.054;4.110;2023-09-30T18:03:43;102483.00;;;24.84;100.00
73240;BME280;61452;40.054;4.110;2023-09-30T18:08:48;102483.97;;;24.83;100.00
73240;BME280;61452;40.054;4.110;2023-09-30T18:13:50;102483.13;;;24.82;100.00
73240;BME280;61452;40.054;4.110;2023-09-30T18:18:54;102488.66;;;24.81;100.00
73240;BME280;61452;40.054;4.110;2023-09-30T18:23:57;102483.97;;;24.83;100.00
73240;BME280;61452;40.054;4.110;2023-09-30T18:29:00;102482.28;;;24.82;100.00
73240;BME280;61452;40.054;4.110;2023-09-30T18:34:03;102482.28;;;24.82;100.00
73240;BME280;61452;40.054;4.110;2023-09-30T18:39:07;102487.63;;;24.82;100.00
73240;BME280;61452;40.054;4.110;2023-09-30T18:44:26;102477.91;;;24.81;100.00
73240;BME280;61452;40.054;4.110;2023-09-30T18:49:28;102485.97;;;24.81;100.00
73240;BME280;61452;40.054;4.110;2023-09-30T18:54:31;102487.91;;;24.79;100.00
73240;BME280;61452;40.054;4.110;2023-09-30T18:59:33;102487.06;;;24.78;100.00
73240;BME280;61452;40.054;4.110;2023-09-30T19:04:35;102489.75;;;24.78;100.00
73240;BME280;61452;40.054;4.110;2023-09-30T19:09:41;102496.94;;;24.78;100.00
73240;BME280;61452;40.054;4.110;2023-09-30T19:14:44;102490.72;;;24.77;100.00
73240;BME280;61452;40.054;4.110;2023-09-30T19:19:46;102492.41;;;24.78;100.00
73240;BME280;61452;40.054;4.110;2023-09-30T19:24:48;102491.84;;;24.75;100.00
73240;BME280;61452;40.054;4.110;2023-09-30T19:29:51;102495.22;;;24.77;100.00
73240;BME280;61452;40.054;4.110;2023-09-30T19:34:53;102496.94;;;24.78;100.00
73240;BME280;61452;40.054;4.110;2023-09-30T19:39:56;102494.13;;;24.79;100.00
73240;BME280;61452;40.054;4.110;2023-09-30T19:44:59;102487.06;;;24.78;100.00
73240;BME280;61452;40.054;4.110;2023-09-30T19:50:05;102488.75;;;24.79;100.00
73240;BME280;61452;40.054;4.110;2023-09-30T19:55:07;102484.50;;;24.77;100.00
73240;BME280;61452;40.054;4.110;2023-09-30T20:00:10;102487.06;;;24.78;100.00
73240;BME280;61452;40.054;4.110;2023-09-30T20:05:13;102489.47;;;24.81;100.00
73240;BME280;61452;40.054;4.110;2023-09-30T20:10:15;102481.41;;;24.81;100.00
73240;BME280;61452;40.054;4.110;2023-09-30T20:15:17;102486.09;;;24.79;100.00
73240;BME280;61452;40.054;4.110;2023-09-30T20:20:20;102482.28;;;24.82;100.00
73240;BME280;61452;40.054;4.110;2023-09-30T20:25:22;102481.56;;;24.80;100.00
73240;BME280;61452;40.054;4.110;2023-09-30T20:30:26;102482.28;;;24.82;100.00
73240;BME280;61452;40.054;4.110;2023-09-30T20:35:28;102486.94;;;24.80;100.00
73240;BME280;61452;40.054;4.110;2023-09-30T20:40:30;102490.31;;;24.82;100.00
73240;BME280;61452;40.054;4.110;2023-09-30T20:45:32;102494.84;;;24.81;100.00
73240;BME280;61452;40.054;4.110;2023-09-30T20:50:35;102483.28;;;24.81;100.00
73240;BME280;61452;40.054;4.110;2023-09-30T20:55:37;102491.34;;;24.81;100.00
73240;BME280;61452;40.054;4.110;2023-09-30T21:00:39;102489.63;;;24.80;100.00
73240;BME280;61452;40.054;4.110;2023-09-30T21:05:42;102493.16;;;24.80;100.00
73240;BME280;61452;40.054;4.110;2023-09-30T21:10:45;102482.66;;;24.77;100.00
73240;BME280;61452;40.054;4.110;2023-09-30T21:15:47;102493.16;;;24.80;100.00
73240;BME280;61452;40.054;4.110;2023-09-30T21:20:50;102490.59;;;24.79;100.00
73240;BME280;61452;40.054;4.110;2023-09-30T21:25:52;102489.75;;;24.78;100.00
73240;BME280;61452;40.054;4.110;2023-09-30T21:30:55;102490.59;;;24.79;100.00
73240;BME280;61452;40.054;4.110;2023-09-30T21:35:57;102495.09;;;24.78;100.00
73240;BME280;61452;40.054;4.110;2023-09-30T21:40:59;102500.34;;;24.80;100.00
73240;BME280;61452;40.054;4.110;2023-09-30T21:46:01;102496.69;;;24.81;100.00
73240;BME280;61452;40.054;4.110;2023-09-30T21:51:04;102491.44;;;24.79;100.00
73240;BME280;61452;40.054;4.110;2023-09-30T21:56:06;102493.28;;;24.79;100.00
73240;BME280;61452;40.054;4.110;2023-09-30T22:01:08;102496.81;;;24.79;100.00
73240;BME280;61452;40.054;4.110;2023-09-30T22:06:16;102494.25;;;24.78;100.00
73240;BME280;61452;40.054;4.110;2023-09-30T22:11:19;102486.94;;;24.80;100.00
73240;BME280;61452;40.054;4.110;2023-09-30T22:16:21;102489.63;;;24.80;100.00
73240;BME280;61452;40.054;4.110;2023-09-30T22:21:25;102484.38;;;24.78;100.00
73240;BME280;61452;40.054;4.110;2023-09-30T22:26:28;102481.69;;;24.78;100.00
73240;BME280;61452;40.054;4.110;2023-09-30T22:31:31;102470.94;;;24.78;100.00
73240;BME280;61452;40.054;4.110;2023-09-30T22:36:34;102481.69;;;24.78;100.00
73240;BME280;61452;40.054;4.110;2023-09-30T22:41:47;102479.13;;;24.77;100.00
73240;BME280;61452;40.054;4.110;2023-09-30T22:46:49;102482.66;;;24.77;100.00
73240;BME280;61452;40.054;4.110;2023-09-30T22:51:52;102476.31;;;24.78;100.00
73240;BME280;61452;40.054;4.110;2023-09-30T22:56:55;102479.13;;;24.77;100.00
73240;BME280;61452;40.054;4.110;2023-09-30T23:01:57;102476.56;;;24.75;100.00
73240;BME280;61452;40.054;4.110;2023-09-30T23:07:00;102478.25;;;24.76;100.00
73240;BME280;61452;40.054;4.110;2023-09-30T23:12:03;102479.97;;;24.77;100.00
73240;BME280;61452;40.054;4.110;2023-09-30T23:17:07;102472.78;;;24.78;100.00
73240;BME280;61452;40.054;4.110;2023-09-30T23:22:09;102469.25;;;24.77;100.00
73240;BME280;61452;40.054;4.110;2023-09-30T23:27:16;102466.56;;;24.77;100.00
73240;BME280;61452;40.054;4.110;2023-09-30T23:32:19;102461.31;;;24.76;100.00
73240;BME280;61452;40.054;4.110;2023-09-30T23:37:22;102464.72;;;24.78;100.00
73240;BME280;61452;40.054;4.110;2023-09-30T23:42:25;102466.56;;;24.77;100.00
73240;BME280;61452;40.054;4.110;2023-09-30T23:47:27;102465.59;;;24.78;100.00
73240;BME280;61452;40.054;4.110;2023-09-30T23:52:51;102461.19;;;24.77;100.00
73240;BME280;61452;40.054;4.110;2023-09-30T23:57:56;102464.84;;;24.76;100.00
